createdAt,value
2022-10-12T00:00:08.537Z,99.95
2022-10-12T00:01:08.514Z,99.95
2022-10-12T00:02:08.587Z,99.95
2022-10-12T00:03:08.493Z,99.95
2022-10-12T00:04:08.473Z,99.85
2022-10-12T00:05:08.462Z,99.74
2022-10-12T00:06:08.443Z,99.99
2022-10-12T00:07:08.464Z,99.95
2022-10-12T00:08:08.423Z,99.99
2022-10-12T00:09:08.406Z,99.95
2022-10-12T00:10:08.400Z,99.99
2022-10-12T00:11:08.395Z,99.99
2022-10-12T00:12:08.391Z,99.99
2022-10-12T00:13:08.386Z,99.99
2022-10-12T00:14:08.358Z,99.99
2022-10-12T00:15:08.356Z,99.99
2022-10-12T00:16:08.329Z,99.95
2022-10-12T00:17:08.348Z,99.95
2022-10-12T00:18:08.314Z,99.95
2022-10-12T00:19:08.292Z,99.99
2022-10-12T00:20:08.315Z,99.95
2022-10-12T00:21:08.264Z,99.95
2022-10-12T00:22:08.276Z,99.99
2022-10-12T00:23:08.254Z,99.99
2022-10-12T00:24:08.254Z,99.99
2022-10-12T00:25:08.225Z,99.99
2022-10-12T00:26:08.214Z,99.99
2022-10-12T00:27:08.224Z,99.99
2022-10-12T00:28:08.199Z,99.99
2022-10-12T00:29:08.187Z,99.99
2022-10-12T00:30:08.172Z,99.99
2022-10-12T00:31:08.155Z,99.99
2022-10-12T00:32:08.164Z,99.90
2022-10-12T00:33:08.135Z,99.99
2022-10-12T00:34:08.145Z,99.99
2022-10-12T00:35:08.114Z,99.99
2022-10-12T00:36:08.105Z,99.99
2022-10-12T00:37:08.122Z,99.99
2022-10-12T00:38:08.094Z,99.99
2022-10-12T00:39:08.073Z,99.99
2022-10-12T00:40:08.082Z,99.99
2022-10-12T00:41:08.071Z,99.99
2022-10-12T00:42:08.089Z,99.99
2022-10-12T00:43:08.035Z,99.99
2022-10-12T00:44:08.035Z,99.99
2022-10-12T00:45:08.007Z,99.99
2022-10-12T00:46:08.016Z,99.99
2022-10-12T00:47:07.993Z,99.99
2022-10-12T00:48:07.975Z,99.99
2022-10-12T00:49:07.958Z,99.99
2022-10-12T00:50:07.945Z,99.99
2022-10-12T00:51:07.976Z,99.99
2022-10-12T00:52:07.921Z,99.99
2022-10-12T00:53:07.905Z,99.99
2022-10-12T00:54:07.906Z,99.99
2022-10-12T00:55:07.896Z,99.99
2022-10-12T00:56:07.874Z,99.99
2022-10-12T00:57:07.965Z,99.99
2022-10-12T00:58:07.865Z,99.99
2022-10-12T00:59:07.867Z,99.99
2022-10-12T01:00:07.826Z,99.99
2022-10-12T01:01:07.892Z,99.99
2022-10-12T01:02:07.848Z,99.99
2022-10-12T01:03:07.805Z,99.99
2022-10-12T01:04:07.797Z,99.99
2022-10-12T01:05:07.796Z,99.99
2022-10-12T01:06:07.781Z,99.99
2022-10-12T01:07:07.779Z,99.99
2022-10-12T01:08:07.768Z,99.99
2022-10-12T01:09:07.756Z,99.99
2022-10-12T01:10:07.715Z,99.99
2022-10-12T01:11:07.739Z,99.99
2022-10-12T01:12:07.717Z,99.99
2022-10-12T01:13:07.697Z,99.99
2022-10-12T01:14:07.667Z,99.99
2022-10-12T01:15:07.681Z,99.99
2022-10-12T01:16:07.647Z,99.99
2022-10-12T01:17:07.647Z,99.94
2022-10-12T01:18:07.637Z,99.99
2022-10-12T01:19:07.642Z,99.84
2022-10-12T01:20:07.626Z,99.99
2022-10-12T01:21:07.597Z,99.99
2022-10-12T01:22:07.627Z,99.99
2022-10-12T01:23:07.580Z,99.99
2022-10-12T01:24:07.577Z,99.99
2022-10-12T01:25:07.557Z,99.99
2022-10-12T01:26:07.563Z,99.99
2022-10-12T01:27:07.577Z,99.99
2022-10-12T01:28:07.548Z,99.99
2022-10-12T01:29:07.512Z,99.99
2022-10-12T01:30:07.518Z,99.99
2022-10-12T01:31:07.478Z,99.99
2022-10-12T01:32:07.518Z,99.99
2022-10-12T01:33:07.455Z,99.99
2022-10-12T01:34:07.448Z,99.99
2022-10-12T01:35:07.447Z,99.99
2022-10-12T01:36:07.448Z,99.99
2022-10-12T01:37:07.438Z,99.99
2022-10-12T01:38:07.399Z,99.99
2022-10-12T01:39:07.410Z,99.99
2022-10-12T01:40:07.397Z,99.99
2022-10-12T01:41:07.370Z,99.99
2022-10-12T01:42:07.389Z,99.99
2022-10-12T01:43:07.359Z,99.99
2022-10-12T01:44:07.347Z,99.99
2022-10-12T01:45:07.328Z,99.99
2022-10-12T01:46:07.336Z,99.99
2022-10-12T01:47:07.318Z,99.99
2022-10-12T01:48:07.288Z,99.99
2022-10-12T01:49:07.326Z,99.99
2022-10-12T01:50:07.271Z,99.99
2022-10-12T01:51:07.279Z,99.99
2022-10-12T01:52:07.272Z,99.99
2022-10-12T01:53:07.249Z,99.99
2022-10-12T01:54:07.229Z,99.99
2022-10-12T01:55:07.219Z,99.99
2022-10-12T01:56:07.210Z,99.99
2022-10-12T01:57:07.209Z,99.99
2022-10-12T01:58:07.178Z,99.99
2022-10-12T01:59:07.186Z,99.99
2022-10-12T02:00:07.161Z,99.99
2022-10-12T02:01:07.230Z,99.99
2022-10-12T02:02:07.179Z,99.99
2022-10-12T02:03:07.139Z,99.99
2022-10-12T02:04:07.130Z,99.99
2022-10-12T02:05:07.133Z,99.99
2022-10-12T02:06:07.110Z,99.99
2022-10-12T02:07:07.121Z,99.99
2022-10-12T02:08:07.074Z,99.99
2022-10-12T02:09:07.069Z,99.99
2022-10-12T02:10:07.055Z,99.99
2022-10-12T02:11:07.040Z,99.99
2022-10-12T02:12:07.051Z,99.99
2022-10-12T02:13:07.037Z,99.99
2022-10-12T02:14:07.000Z,99.99
2022-10-12T02:15:06.996Z,99.99
2022-10-12T02:16:07.003Z,99.99
2022-10-12T02:17:06.986Z,99.99
2022-10-12T02:18:06.960Z,99.99
2022-10-12T02:19:06.952Z,99.99
2022-10-12T02:20:06.943Z,99.99
2022-10-12T02:21:06.928Z,99.99
2022-10-12T02:22:06.938Z,99.99
2022-10-12T02:23:06.920Z,99.99
2022-10-12T02:24:06.903Z,99.99
2022-10-12T02:25:06.874Z,99.99
2022-10-12T02:26:06.899Z,99.99
2022-10-12T02:27:06.861Z,99.99
2022-10-12T02:28:06.851Z,99.99
2022-10-12T02:29:06.954Z,99.99
2022-10-12T02:30:06.837Z,99.99
2022-10-12T02:31:06.992Z,99.99
2022-10-12T02:32:06.821Z,99.99
2022-10-12T02:33:06.792Z,99.99
2022-10-12T02:34:06.781Z,99.99
2022-10-12T02:35:06.760Z,99.99
2022-10-12T02:36:06.772Z,99.99
2022-10-12T02:37:06.775Z,99.99
2022-10-12T02:38:06.733Z,99.99
2022-10-12T02:39:06.722Z,99.99
2022-10-12T02:40:06.721Z,99.99
2022-10-12T02:41:06.698Z,99.99
2022-10-12T02:42:06.720Z,99.99
2022-10-12T02:43:10.531Z,99.99
2022-10-12T02:44:06.672Z,99.99
2022-10-12T02:45:06.661Z,99.99
2022-10-12T02:46:06.642Z,99.99
2022-10-12T02:47:06.655Z,99.99
2022-10-12T02:48:06.624Z,99.99
2022-10-12T02:49:06.611Z,99.99
2022-10-12T02:50:06.602Z,99.99
2022-10-12T02:51:06.600Z,99.99
2022-10-12T02:52:06.593Z,99.99
2022-10-12T02:53:06.580Z,99.99
2022-10-12T02:54:06.562Z,99.99
2022-10-12T02:55:06.545Z,99.99
2022-10-12T02:56:06.523Z,99.99
2022-10-12T02:57:06.542Z,99.99
2022-10-12T02:58:06.512Z,99.99
2022-10-12T02:59:06.500Z,99.99
2022-10-12T03:00:06.504Z,99.99
2022-10-12T03:01:06.569Z,99.99
2022-10-12T03:02:06.476Z,99.99
2022-10-12T03:03:06.484Z,99.99
2022-10-12T03:04:06.464Z,99.99
2022-10-12T03:05:06.425Z,99.99
2022-10-12T03:06:06.414Z,99.99
2022-10-12T03:07:06.450Z,99.99
2022-10-12T03:08:06.403Z,99.99
2022-10-12T03:09:06.393Z,99.99
2022-10-12T03:10:06.373Z,99.99
2022-10-12T03:11:06.399Z,99.99
2022-10-12T03:12:06.367Z,99.99
2022-10-12T03:13:06.353Z,99.99
2022-10-12T03:14:06.348Z,99.99
2022-10-12T03:15:06.331Z,99.99
2022-10-12T03:16:06.336Z,99.99
2022-10-12T03:17:06.323Z,99.99
2022-10-12T03:18:06.298Z,99.99
2022-10-12T03:19:06.280Z,99.99
2022-10-12T03:20:06.266Z,99.99
2022-10-12T03:21:06.273Z,99.99
2022-10-12T03:22:06.273Z,99.99
2022-10-12T03:23:06.222Z,99.99
2022-10-12T03:24:06.223Z,99.99
2022-10-12T03:25:06.213Z,99.99
2022-10-12T03:26:06.214Z,99.99
2022-10-12T03:27:06.190Z,99.99
2022-10-12T03:28:06.194Z,99.99
2022-10-12T03:29:06.165Z,99.99
2022-10-12T03:30:06.153Z,99.99
2022-10-12T03:31:06.156Z,99.99
2022-10-12T03:32:06.140Z,99.99
2022-10-12T03:33:06.115Z,99.99
2022-10-12T03:34:06.107Z,99.99
2022-10-12T03:35:06.105Z,99.99
2022-10-12T03:36:06.265Z,99.99
2022-10-12T03:37:06.067Z,99.99
2022-10-12T03:38:06.106Z,99.99
2022-10-12T03:39:06.073Z,99.99
2022-10-12T03:40:06.044Z,99.99
2022-10-12T03:41:06.992Z,99.99
2022-10-12T03:42:06.025Z,99.99
2022-10-12T03:43:06.004Z,99.99
2022-10-12T03:44:06.007Z,99.99
2022-10-12T03:45:05.995Z,99.99
2022-10-12T03:46:06.002Z,99.99
2022-10-12T03:47:05.964Z,99.99
2022-10-12T03:48:05.946Z,99.99
2022-10-12T03:49:05.960Z,99.99
2022-10-12T03:50:05.925Z,99.99
2022-10-12T03:51:05.927Z,99.99
2022-10-12T03:52:05.918Z,99.99
2022-10-12T03:53:05.904Z,99.99
2022-10-12T03:54:05.885Z,99.99
2022-10-12T03:55:05.875Z,99.99
2022-10-12T03:56:05.890Z,99.99
2022-10-12T03:57:05.847Z,99.99
2022-10-12T03:58:05.835Z,99.99
2022-10-12T03:59:05.838Z,99.99
2022-10-12T04:00:05.814Z,99.99
2022-10-12T04:01:05.867Z,99.99
2022-10-12T04:02:05.816Z,99.99
2022-10-12T04:03:05.783Z,99.99
2022-10-12T04:04:05.799Z,99.99
2022-10-12T04:05:05.767Z,99.99
2022-10-12T04:06:05.787Z,99.99
2022-10-12T04:07:05.739Z,99.99
2022-10-12T04:08:05.727Z,99.99
2022-10-12T04:09:05.734Z,99.99
2022-10-12T04:10:05.709Z,99.99
2022-10-12T04:11:05.709Z,99.99
2022-10-12T04:12:05.689Z,99.99
2022-10-12T04:13:05.677Z,99.99
2022-10-12T04:14:05.656Z,99.99
2022-10-12T04:15:05.664Z,99.99
2022-10-12T04:16:05.670Z,99.99
2022-10-12T04:17:05.651Z,99.99
2022-10-12T04:18:05.607Z,99.99
2022-10-12T04:19:05.611Z,99.99
2022-10-12T04:20:05.621Z,99.99
2022-10-12T04:21:05.597Z,99.99
2022-10-12T04:22:05.576Z,99.99
2022-10-12T04:23:05.590Z,99.99
2022-10-12T04:24:05.550Z,99.99
2022-10-12T04:25:05.571Z,99.99
2022-10-12T04:26:05.583Z,99.99
2022-10-12T04:27:05.519Z,99.99
2022-10-12T04:28:05.512Z,99.99
2022-10-12T04:29:05.501Z,99.99
2022-10-12T04:30:05.490Z,99.99
2022-10-12T04:31:05.488Z,99.99
2022-10-12T04:32:08.854Z,99.99
2022-10-12T04:33:06.469Z,99.99
2022-10-12T04:34:05.440Z,99.99
2022-10-12T04:35:05.433Z,99.99
2022-10-12T04:36:05.437Z,99.99
2022-10-12T04:37:05.435Z,99.99
2022-10-12T04:38:05.389Z,99.99
2022-10-12T04:39:05.378Z,99.99
2022-10-12T04:40:05.388Z,99.99
2022-10-12T04:41:05.443Z,99.99
2022-10-12T04:42:05.355Z,99.99
2022-10-12T04:43:05.347Z,99.99
2022-10-12T04:44:05.338Z,99.99
2022-10-12T04:45:05.318Z,99.99
2022-10-12T04:46:05.308Z,99.99
2022-10-12T04:47:05.313Z,99.99
2022-10-12T04:48:05.295Z,99.99
2022-10-12T04:49:05.266Z,99.99
2022-10-12T04:50:05.271Z,99.99
2022-10-12T04:51:05.269Z,99.99
2022-10-12T04:52:05.243Z,99.99
2022-10-12T04:53:05.230Z,99.99
2022-10-12T04:54:05.253Z,99.99
2022-10-12T04:55:05.198Z,99.99
2022-10-12T04:56:05.210Z,99.99
2022-10-12T04:57:05.209Z,99.99
2022-10-12T04:58:05.179Z,99.99
2022-10-12T04:59:05.159Z,99.99
2022-10-12T05:00:05.160Z,99.99
2022-10-12T05:01:05.198Z,99.99
2022-10-12T05:02:05.137Z,99.99
2022-10-12T05:03:05.122Z,99.99
2022-10-12T05:04:05.119Z,99.99
2022-10-12T05:05:05.116Z,99.99
2022-10-12T05:06:05.119Z,99.99
2022-10-12T05:07:05.074Z,99.99
2022-10-12T05:08:05.074Z,99.99
2022-10-12T05:09:05.056Z,99.99
2022-10-12T05:10:05.061Z,99.99
2022-10-12T05:11:05.054Z,99.99
2022-10-12T05:12:05.025Z,99.99
2022-10-12T05:13:05.001Z,99.99
2022-10-12T05:14:05.002Z,99.99
2022-10-12T05:15:04.979Z,99.99
2022-10-12T05:16:04.992Z,99.99
2022-10-12T05:17:04.949Z,99.99
2022-10-12T05:18:04.950Z,99.99
2022-10-12T05:19:04.939Z,99.99
2022-10-12T05:20:04.920Z,99.99
2022-10-12T05:21:04.937Z,99.99
2022-10-12T05:22:04.899Z,99.99
2022-10-12T05:23:04.890Z,99.99
2022-10-12T05:24:04.879Z,99.99
2022-10-12T05:25:04.871Z,99.99
2022-10-12T05:26:04.866Z,99.99
2022-10-12T05:27:04.854Z,99.99
2022-10-12T05:28:04.829Z,99.99
2022-10-12T05:29:04.833Z,99.99
2022-10-12T05:30:04.801Z,99.99
2022-10-12T05:31:04.830Z,99.99
2022-10-12T05:32:04.797Z,99.99
2022-10-12T05:33:04.781Z,99.99
2022-10-12T05:34:04.760Z,99.99
2022-10-12T05:35:04.778Z,99.99
2022-10-12T05:36:04.741Z,99.99
2022-10-12T05:37:04.731Z,99.99
2022-10-12T05:38:04.733Z,99.99
2022-10-12T05:39:04.756Z,99.99
2022-10-12T05:40:04.691Z,99.99
2022-10-12T05:41:04.711Z,99.99
2022-10-12T05:42:04.695Z,99.99
2022-10-12T05:43:04.673Z,99.99
2022-10-12T05:44:04.650Z,99.99
2022-10-12T05:45:04.658Z,99.99
2022-10-12T05:46:04.646Z,99.99
2022-10-12T05:47:04.626Z,99.99
2022-10-12T05:48:04.640Z,99.99
2022-10-12T05:49:04.592Z,99.99
2022-10-12T05:50:04.619Z,99.99
2022-10-12T05:51:04.591Z,99.99
2022-10-12T05:52:04.572Z,99.99
2022-10-12T05:53:04.552Z,99.99
2022-10-12T05:54:04.541Z,99.99
2022-10-12T05:55:04.537Z,99.99
2022-10-12T05:56:04.532Z,99.99
2022-10-12T05:57:04.491Z,99.99
2022-10-12T05:58:04.514Z,99.99
2022-10-12T05:59:04.506Z,99.99
2022-10-12T06:00:04.471Z,99.99
2022-10-12T06:01:04.482Z,99.99
2022-10-12T06:02:04.533Z,99.99
2022-10-12T06:03:04.440Z,99.99
2022-10-12T06:04:04.437Z,99.99
2022-10-12T06:05:04.430Z,99.99
2022-10-12T06:06:04.447Z,99.99
2022-10-12T06:07:04.391Z,99.99
2022-10-12T06:08:04.402Z,99.99
2022-10-12T06:09:04.377Z,99.99
2022-10-12T06:10:04.363Z,99.99
2022-10-12T06:11:04.376Z,99.99
2022-10-12T06:12:04.342Z,99.99
2022-10-12T06:13:04.324Z,99.99
2022-10-12T06:14:04.324Z,99.99
2022-10-12T06:15:04.319Z,99.99
2022-10-12T06:16:04.382Z,99.99
2022-10-12T06:17:04.284Z,99.99
2022-10-12T06:18:04.283Z,99.99
2022-10-12T06:19:04.276Z,99.99
2022-10-12T06:20:04.249Z,99.99
2022-10-12T06:21:28.494Z,99.99
2022-10-12T06:22:05.244Z,99.99
2022-10-12T06:23:04.261Z,99.99
2022-10-12T06:24:04.193Z,99.99
2022-10-12T06:25:04.204Z,99.99
2022-10-12T06:26:04.226Z,99.99
2022-10-12T06:27:04.192Z,99.99
2022-10-12T06:28:04.180Z,99.99
2022-10-12T06:29:04.153Z,99.99
2022-10-12T06:30:04.133Z,99.99
2022-10-12T06:31:04.134Z,99.99
2022-10-12T06:32:04.145Z,99.99
2022-10-12T06:33:04.104Z,99.99
2022-10-12T06:34:04.095Z,99.99
2022-10-12T06:35:04.092Z,99.99
2022-10-12T06:36:04.076Z,99.99
2022-10-12T06:37:04.075Z,99.99
2022-10-12T06:38:04.060Z,99.99
2022-10-12T06:39:04.064Z,99.99
2022-10-12T06:40:04.043Z,99.99
2022-10-12T06:41:04.035Z,99.99
2022-10-12T06:42:04.015Z,99.99
2022-10-12T06:43:03.993Z,99.99
2022-10-12T06:44:03.986Z,99.99
2022-10-12T06:45:03.983Z,99.99
2022-10-12T06:46:04.005Z,99.99
2022-10-12T06:47:03.953Z,99.99
2022-10-12T06:48:03.945Z,99.99
2022-10-12T06:49:03.926Z,99.99
2022-10-12T06:50:03.925Z,99.99
2022-10-12T06:51:03.918Z,99.99
2022-10-12T06:52:03.903Z,99.99
2022-10-12T06:53:03.897Z,99.99
2022-10-12T06:54:03.874Z,99.99
2022-10-12T06:55:03.868Z,99.99
2022-10-12T06:56:03.877Z,99.99
2022-10-12T06:57:03.836Z,99.99
2022-10-12T06:58:03.836Z,99.99
2022-10-12T06:59:03.823Z,99.99
2022-10-12T07:00:03.813Z,99.99
2022-10-12T07:01:03.795Z,99.99
2022-10-12T07:02:03.899Z,99.99
2022-10-12T07:03:03.784Z,99.99
2022-10-12T07:04:03.764Z,99.99
2022-10-12T07:05:03.754Z,99.99
2022-10-12T07:06:03.795Z,99.99
2022-10-12T07:07:03.725Z,99.99
2022-10-12T07:08:03.708Z,99.99
2022-10-12T07:09:03.709Z,99.99
2022-10-12T07:10:03.699Z,99.99
2022-10-12T07:11:03.687Z,99.99
2022-10-12T07:12:03.695Z,99.99
2022-10-12T07:13:03.670Z,99.99
2022-10-12T07:14:03.652Z,99.99
2022-10-12T07:15:03.647Z,99.99
2022-10-12T07:16:03.655Z,99.99
2022-10-12T07:17:03.628Z,99.99
2022-10-12T07:18:03.596Z,99.99
2022-10-12T07:19:03.617Z,99.99
2022-10-12T07:20:03.582Z,99.99
2022-10-12T07:21:03.597Z,99.99
2022-10-12T07:22:03.560Z,99.99
2022-10-12T07:23:03.558Z,99.99
2022-10-12T07:24:03.527Z,99.99
2022-10-12T07:25:03.530Z,99.99
2022-10-12T07:26:03.543Z,99.99
2022-10-12T07:27:03.520Z,99.99
2022-10-12T07:28:03.478Z,99.99
2022-10-12T07:29:03.480Z,99.99
2022-10-12T07:30:03.471Z,99.99
2022-10-12T07:31:03.462Z,99.99
2022-10-12T07:32:03.443Z,99.99
2022-10-12T07:33:03.438Z,99.99
2022-10-12T07:34:03.407Z,99.99
2022-10-12T07:35:03.409Z,99.99
2022-10-12T07:36:13.934Z,99.99
2022-10-12T07:37:04.377Z,99.99
2022-10-12T07:38:03.358Z,99.99
2022-10-12T07:39:03.368Z,99.99
2022-10-12T07:40:03.360Z,99.99
2022-10-12T07:41:03.330Z,99.99
2022-10-12T07:42:03.325Z,99.99
2022-10-12T07:43:15.726Z,99.99
2022-10-12T07:44:04.287Z,99.99
2022-10-12T07:45:03.297Z,99.99
2022-10-12T07:46:03.306Z,99.88
2022-10-12T07:47:03.258Z,99.88
2022-10-12T07:48:03.268Z,99.78
2022-10-12T07:49:03.237Z,99.68
2022-10-12T07:50:03.246Z,99.52
2022-10-12T07:51:03.252Z,99.43
2022-10-12T07:52:03.209Z,99.32
2022-10-12T07:53:03.193Z,99.01
2022-10-12T07:54:03.186Z,99.01
2022-10-12T07:55:03.170Z,98.86
2022-10-12T07:56:03.181Z,98.66
2022-10-12T07:57:03.129Z,98.55
2022-10-12T07:58:03.140Z,98.30
2022-10-12T07:59:03.139Z,98.30
2022-10-12T08:00:03.106Z,98.30
2022-10-12T08:01:03.109Z,98.10
2022-10-12T08:02:03.160Z,98.10
2022-10-12T08:03:03.089Z,98.20
2022-10-12T08:04:03.057Z,98.05
2022-10-12T08:05:03.092Z,97.85
2022-10-12T08:06:03.089Z,97.53
2022-10-12T08:07:03.042Z,97.13
2022-10-12T08:08:03.030Z,96.46
2022-10-12T08:09:03.012Z,95.84
2022-10-12T08:10:02.980Z,95.53
2022-10-12T08:11:03.021Z,95.39
2022-10-12T08:12:03.021Z,95.18
2022-10-12T08:13:02.988Z,94.56
2022-10-12T08:14:03.044Z,94.21
2022-10-12T08:15:02.953Z,93.59
2022-10-12T08:16:02.961Z,93.18
2022-10-12T08:17:02.911Z,92.97
2022-10-12T08:18:02.910Z,93.04
2022-10-12T08:19:02.921Z,92.93
2022-10-12T08:20:02.880Z,92.63
2022-10-12T08:21:02.875Z,92.63
2022-10-12T08:22:02.860Z,92.83
2022-10-12T08:23:02.869Z,92.79
2022-10-12T08:24:02.833Z,92.58
2022-10-12T08:25:02.820Z,92.38
2022-10-12T08:26:02.845Z,92.38
2022-10-12T08:27:02.816Z,92.27
2022-10-12T08:28:02.783Z,92.13
2022-10-12T08:29:02.782Z,91.51
2022-10-12T08:30:02.776Z,91.61
2022-10-12T08:31:02.752Z,91.31
2022-10-12T08:32:02.762Z,90.89
2022-10-12T08:33:05.748Z,90.65
2022-10-12T08:34:03.712Z,90.55
2022-10-12T08:35:02.710Z,90.34
2022-10-12T08:36:02.714Z,89.99
2022-10-12T08:37:02.697Z,89.78
2022-10-12T08:38:02.675Z,89.17
2022-10-12T08:39:02.675Z,89.27
2022-10-12T08:40:03.771Z,88.62
2022-10-12T08:41:02.632Z,88.10
2022-10-12T08:42:02.636Z,87.79
2022-10-12T08:43:02.606Z,87.96
2022-10-12T08:44:02.603Z,87.45
2022-10-12T08:45:02.605Z,87.85
2022-10-12T08:46:02.595Z,87.30
2022-10-12T08:47:02.589Z,87.10
2022-10-12T08:48:02.571Z,86.79
2022-10-12T08:49:02.581Z,86.48
2022-10-12T08:50:02.544Z,86.24
2022-10-12T08:51:02.536Z,85.72
2022-10-12T08:52:02.525Z,85.72
2022-10-12T08:53:02.501Z,85.28
2022-10-12T08:54:02.488Z,84.77
2022-10-12T08:55:02.504Z,84.46
2022-10-12T08:56:02.514Z,83.84
2022-10-12T08:57:02.464Z,83.03
2022-10-12T08:58:02.434Z,82.92
2022-10-12T08:59:02.729Z,83.03
2022-10-12T09:00:02.481Z,83.09
2022-10-12T09:01:02.425Z,82.89
2022-10-12T09:02:02.472Z,82.17
2022-10-12T09:03:02.397Z,82.17
2022-10-12T09:04:02.365Z,81.76
2022-10-12T09:05:02.375Z,81.96
2022-10-12T09:06:02.363Z,82.17
2022-10-12T09:07:02.345Z,82.07
2022-10-12T09:08:02.324Z,81.65
2022-10-12T09:09:02.340Z,81.86
2022-10-12T09:10:02.616Z,82.03
2022-10-12T09:11:02.286Z,82.13
2022-10-12T09:12:02.280Z,82.13
2022-10-12T09:13:02.278Z,82.23
2022-10-12T09:14:02.246Z,82.29
2022-10-12T09:15:02.273Z,82.20
2022-10-12T09:16:02.250Z,81.48
2022-10-12T09:17:02.233Z,81.68
2022-10-12T09:18:02.218Z,81.68
2022-10-12T09:19:02.198Z,81.48
2022-10-12T09:20:03.220Z,81.58
2022-10-12T09:21:02.167Z,81.85
2022-10-12T09:22:02.168Z,81.95
2022-10-12T09:23:02.148Z,81.03
2022-10-12T09:24:02.147Z,80.73
2022-10-12T09:25:02.128Z,81.13
2022-10-12T09:26:02.159Z,81.54
2022-10-12T09:27:02.112Z,80.62
2022-10-12T09:28:02.090Z,80.73
2022-10-12T09:29:02.142Z,80.62
2022-10-12T09:30:02.089Z,80.93
2022-10-12T09:31:02.061Z,80.79
2022-10-12T09:32:02.048Z,80.38
2022-10-12T09:33:02.038Z,80.48
2022-10-12T09:34:02.028Z,81.20
2022-10-12T09:35:02.020Z,80.79
2022-10-12T09:36:02.124Z,80.07
2022-10-12T09:37:02.013Z,80.18
2022-10-12T09:38:01.977Z,80.28
2022-10-12T09:39:01.959Z,79.66
2022-10-12T09:40:01.961Z,80.07
2022-10-12T09:41:01.948Z,79.87
2022-10-12T09:42:01.923Z,80.07
2022-10-12T09:43:01.957Z,79.57
2022-10-12T09:44:01.920Z,79.16
2022-10-12T09:45:01.961Z,79.46
2022-10-12T09:46:01.918Z,79.12
2022-10-12T09:47:01.911Z,78.81
2022-10-12T09:48:01.861Z,78.50
2022-10-12T09:49:01.843Z,78.61
2022-10-12T09:50:01.866Z,78.67
2022-10-12T09:51:01.853Z,78.57
2022-10-12T09:52:01.801Z,77.96
2022-10-12T09:53:01.811Z,78.16
2022-10-12T09:54:01.792Z,78.06
2022-10-12T09:55:04.817Z,77.92
2022-10-12T09:56:01.815Z,77.82
2022-10-12T09:57:01.781Z,77.72
2022-10-12T09:58:01.752Z,77.41
2022-10-12T09:59:01.774Z,76.90
2022-10-12T10:00:01.731Z,76.50
2022-10-12T10:01:01.755Z,76.70
2022-10-12T10:02:01.748Z,76.70
2022-10-12T10:03:01.712Z,76.15
2022-10-12T10:04:01.683Z,76.25
2022-10-12T10:05:01.665Z,76.05
2022-10-12T10:06:01.674Z,76.56
2022-10-12T10:07:01.654Z,75.74
2022-10-12T10:08:01.655Z,75.44
2022-10-12T10:09:01.627Z,75.64
2022-10-12T10:10:01.614Z,75.23
2022-10-12T10:11:01.613Z,75.03
2022-10-12T10:12:01.583Z,75.40
2022-10-12T10:13:01.630Z,75.60
2022-10-12T10:14:01.563Z,74.99
2022-10-12T10:15:01.576Z,75.30
2022-10-12T10:16:01.565Z,74.90
2022-10-12T10:17:01.527Z,74.99
2022-10-12T10:18:01.536Z,74.69
2022-10-12T10:19:01.494Z,74.28
2022-10-12T10:20:01.505Z,74.15
2022-10-12T10:21:01.495Z,75.20
2022-10-12T10:22:01.475Z,74.96
2022-10-12T10:23:01.466Z,74.86
2022-10-12T10:24:01.457Z,74.35
2022-10-12T10:25:01.447Z,74.35
2022-10-12T10:26:01.447Z,74.55
2022-10-12T10:27:01.476Z,74.86
2022-10-12T10:28:01.397Z,74.65
2022-10-12T10:29:01.430Z,74.82
2022-10-12T10:30:17.538Z,74.11
2022-10-12T10:31:02.375Z,74.01
2022-10-12T10:32:01.369Z,74.01
2022-10-12T10:33:01.353Z,73.57
2022-10-12T10:34:01.392Z,73.87
2022-10-12T10:35:01.492Z,74.28
2022-10-12T10:36:01.324Z,74.58
2022-10-12T10:37:01.427Z,74.38
2022-10-12T10:38:01.289Z,74.08
2022-10-12T10:39:01.361Z,74.28
2022-10-12T10:40:01.299Z,74.28
2022-10-12T10:41:01.340Z,73.63
2022-10-12T10:42:01.545Z,73.23
2022-10-12T10:43:01.239Z,72.99
2022-10-12T10:44:01.561Z,72.89
2022-10-12T10:45:01.279Z,72.28
2022-10-12T10:46:01.255Z,73.60
2022-10-12T10:47:01.179Z,72.89
2022-10-12T10:48:01.173Z,72.55
2022-10-12T10:49:01.169Z,72.92
2022-10-12T10:50:01.159Z,72.69
2022-10-12T10:51:01.141Z,71.77
2022-10-12T10:52:01.130Z,71.16
2022-10-12T10:53:01.110Z,72.11
2022-10-12T10:54:01.091Z,71.57
2022-10-12T10:55:01.140Z,71.47
2022-10-12T10:56:01.080Z,71.36
2022-10-12T10:57:01.064Z,73.09
2022-10-12T10:58:01.090Z,70.83
2022-10-12T10:59:01.089Z,70.42
2022-10-12T11:00:19.741Z,70.92
2022-10-12T11:01:02.054Z,70.62
2022-10-12T11:02:01.070Z,71.13
2022-10-12T11:03:01.002Z,69.51
2022-10-12T11:04:00.999Z,69.27
2022-10-12T11:05:00.982Z,69.71
2022-10-12T11:06:00.962Z,70.35
2022-10-12T11:07:00.963Z,71.33
2022-10-12T11:08:00.973Z,71.23
2022-10-12T11:09:00.949Z,70.32
2022-10-12T11:10:00.912Z,69.68
2022-10-12T11:11:00.937Z,69.98
2022-10-12T11:12:00.886Z,70.35
2022-10-12T11:13:00.893Z,70.45
2022-10-12T11:14:00.874Z,69.81
2022-10-12T11:15:01.177Z,68.87
2022-10-12T11:16:00.850Z,68.70
2022-10-12T11:17:00.830Z,69.17
2022-10-12T11:18:00.835Z,69.88
2022-10-12T11:19:00.812Z,69.20
2022-10-12T11:20:00.805Z,69.20
2022-10-12T11:21:00.799Z,68.40
2022-10-12T11:22:00.801Z,68.80
2022-10-12T11:23:00.758Z,68.29
2022-10-12T11:24:00.763Z,68.56
2022-10-12T11:25:00.769Z,69.17
2022-10-12T11:26:00.731Z,69.10
2022-10-12T11:27:00.726Z,69.20
2022-10-12T11:28:00.734Z,68.90
2022-10-12T11:29:00.708Z,68.80
2022-10-12T11:30:09.467Z,68.40
2022-10-12T11:31:01.752Z,68.49
2022-10-12T11:32:00.667Z,68.19
2022-10-12T11:33:00.639Z,68.49
2022-10-12T11:34:00.648Z,68.40
2022-10-12T11:35:00.640Z,68.80
2022-10-12T11:36:00.647Z,68.70
2022-10-12T11:37:18.715Z,68.49
2022-10-12T11:38:01.645Z,68.70
2022-10-12T11:39:05.907Z,68.80
2022-10-12T11:40:01.568Z,69.31
2022-10-12T11:41:13.967Z,68.90
2022-10-12T11:42:20.987Z,68.60
2022-10-12T11:43:01.611Z,68.46
2022-10-12T11:44:00.530Z,68.19
2022-10-12T11:45:00.621Z,68.49
2022-10-12T11:46:00.511Z,68.80
2022-10-12T11:47:00.495Z,68.80
2022-10-12T11:48:00.493Z,68.29
2022-10-12T11:49:00.479Z,68.46
2022-10-12T11:50:00.484Z,68.09
2022-10-12T11:51:04.095Z,69.41
2022-10-12T11:52:00.435Z,68.66
2022-10-12T11:53:00.442Z,68.36
2022-10-12T11:54:00.410Z,69.27
2022-10-12T11:55:00.414Z,68.02
2022-10-12T11:56:00.392Z,67.62
2022-10-12T11:57:00.421Z,67.49
2022-10-12T11:58:00.372Z,67.18
2022-10-12T11:59:01.759Z,66.95
2022-10-12T12:00:00.393Z,66.55
2022-10-12T12:01:00.343Z,66.24
2022-10-12T12:02:00.377Z,66.75
2022-10-12T12:03:00.305Z,66.44
2022-10-12T12:04:12.294Z,65.94
2022-10-12T12:05:01.305Z,66.35
2022-10-12T12:06:00.285Z,66.35
2022-10-12T12:07:00.274Z,66.55
2022-10-12T12:08:00.339Z,66.75
2022-10-12T12:09:00.234Z,66.44
2022-10-12T12:10:00.258Z,66.55
2022-10-12T12:11:00.235Z,66.75
2022-10-12T12:12:00.217Z,66.85
2022-10-12T12:13:00.217Z,67.35
2022-10-12T12:14:00.205Z,67.32
2022-10-12T12:15:00.206Z,67.22
2022-10-12T12:16:00.177Z,67.22
2022-10-12T12:17:00.167Z,67.12
2022-10-12T12:18:00.140Z,67.72
2022-10-12T12:19:00.127Z,66.21
2022-10-12T12:20:00.153Z,66.21
2022-10-12T12:21:00.167Z,66.82
2022-10-12T12:22:00.115Z,67.55
2022-10-12T12:23:00.113Z,67.52
2022-10-12T12:24:00.092Z,68.06
2022-10-12T12:25:00.080Z,68.87
2022-10-12T12:26:00.049Z,68.74
2022-10-12T12:27:00.059Z,68.74
2022-10-12T12:28:00.035Z,67.63
2022-10-12T12:29:00.101Z,67.43
2022-10-12T12:30:00.044Z,67.19
2022-10-12T12:31:00.010Z,67.09
2022-10-12T12:31:59.993Z,67.09
2022-10-12T12:32:59.991Z,66.89
2022-10-12T12:34:00.000Z,67.09
2022-10-12T12:35:00.920Z,67.39
2022-10-12T12:35:59.949Z,67.26
2022-10-12T12:36:59.950Z,67.26
2022-10-12T12:37:59.924Z,66.15
2022-10-12T12:38:59.913Z,66.72
2022-10-12T12:39:59.932Z,67.76
2022-10-12T12:40:59.900Z,68.16
2022-10-12T12:42:02.161Z,68.23
2022-10-12T12:42:59.874Z,67.60
2022-10-12T12:43:59.869Z,67.19
2022-10-12T12:44:59.883Z,67.16
2022-10-12T12:45:59.873Z,67.97
2022-10-12T12:46:59.864Z,66.25
2022-10-12T12:47:59.851Z,66.15
2022-10-12T12:48:59.809Z,65.95
2022-10-12T12:49:59.814Z,65.75
2022-10-12T12:50:59.834Z,66.05
2022-10-12T12:51:59.780Z,66.22